Wetterdaten: Woche 06.05.19 - 12.05.19 (KW19)
Datum Zeit Temp. Aussen Temp. o. S. +5cm Feuchte Auss Luftdruck Regen Sonnenschein Regendauer Solar Windben Empfang
06.05.2019 00:00 4,6 C 3,0 C 2,5 C 83 % 1019,4 hPa 0,0 l/m 0,00 h 0,00 h 0 W/m 0,5 km/h (0 Bft) 98,56 %
06.05.2019 01:00 3,8 C 2,3 C 1,7 C 85 % 1019,3 hPa 0,0 l/m 0,00 h 0,00 h 0 W/m 0,0 km/h (0 Bft) 97,51 %
06.05.2019 02:00 3,0 C 1,9 C 1,1 C 87 % 1019,3 hPa 0,0 l/m 0,00 h 0,00 h 0 W/m 0,1 km/h (0 Bft) 97,69 %
06.05.2019 03:00 2,7 C 1,7 C 1,3 C 90 % 1019,3 hPa 0,0 l/m 0,00 h 0,00 h 0 W/m 0,0 km/h (0 Bft) 99,16 %
06.05.2019 04:00 2,3 C 1,3 C 0,9 C 91 % 1019,2 hPa 0,0 l/m 0,00 h 0,00 h 0 W/m 0,4 km/h (0 Bft) 95,80 %
06.05.2019 05:00 2,0 C 1,4 C 1,0 C 92 % 1019,2 hPa 0,0 l/m 0,00 h 0,00 h 0 W/m 0,4 km/h (0 Bft) 98,19 %
06.05.2019 06:00 2,7 C 2,8 C 2,5 C 93 % 1019,2 hPa 0,0 l/m 0,00 h 0,00 h 14 W/m 0,5 km/h (0 Bft) 98,34 %
06.05.2019 07:00 3,5 C 4,1 C 3,7 C 94 % 1019,3 hPa 0,0 l/m 0,00 h 0,00 h 49 W/m 0,4 km/h (0 Bft) 97,78 %
06.05.2019 08:00 4,7 C 6,0 C 5,5 C 93 % 1019,4 hPa 0,0 l/m 0,00 h 0,00 h 114 W/m 4,9 km/h (1 Bft) 94,77 %
06.05.2019 09:00 6,1 C 8,5 C 7,8 C 88 % 1019,4 hPa 0,0 l/m 0,20 h 0,00 h 231 W/m 9,9 km/h (2 Bft) 99,22 %
06.05.2019 10:00 8,2 C 10,5 C 9,8 C 79 % 1019,3 hPa 0,0 l/m 0,27 h 0,00 h 315 W/m 13,3 km/h (3 Bft) 97,87 %
06.05.2019 11:00 9,1 C 10,8 C 10,1 C 77 % 1019,1 hPa 0,0 l/m 0,27 h 0,00 h 329 W/m 13,1 km/h (3 Bft) 98,36 %
06.05.2019 12:00 9,6 C 10,3 C 10,1 C 72 % 1018,9 hPa 0,0 l/m 0,00 h 0,00 h 263 W/m 15,2 km/h (3 Bft) 96,71 %
06.05.2019 13:00 9,7 C 10,1 C 10,0 C 70 % 1018,8 hPa 0,0 l/m 0,00 h 0,00 h 283 W/m 14,2 km/h (3 Bft) 97,07 %
06.05.2019 14:00 9,8 C 11,2 C 10,8 C 71 % 1018,6 hPa 0,0 l/m 0,27 h 0,00 h 349 W/m 14,0 km/h (3 Bft) 97,71 %
06.05.2019 15:00 11,1 C 12,1 C 11,7 C 69 % 1018,1 hPa 0,0 l/m 0,40 h 0,00 h 351 W/m 13,1 km/h (3 Bft) 99,50 %
06.05.2019 16:00 11,3 C 10,8 C 10,4 C 70 % 1017,8 hPa 0,0 l/m 0,07 h 0,33 h 146 W/m 12,1 km/h (2 Bft) 96,57 %
06.05.2019 17:00 8,2 C 6,4 C 6,1 C 86 % 1018,3 hPa 0,4 l/m 0,00 h 0,80 h 50 W/m 8,9 km/h (2 Bft) 94,76 %
06.05.2019 18:00 7,6 C 6,6 C 6,1 C 89 % 1017,8 hPa 0,0 l/m 0,00 h 0,13 h 39 W/m 5,5 km/h (1 Bft) 99,13 %
06.05.2019 19:00 7,7 C 6,7 C 6,3 C 89 % 1017,6 hPa 0,0 l/m 0,00 h 0,00 h 33 W/m 11,5 km/h (2 Bft) 98,71 %
06.05.2019 20:00 7,7 C 7,0 C 6,6 C 89 % 1017,6 hPa 0,0 l/m 0,00 h 0,00 h 12 W/m 12,0 km/h (2 Bft) 96,50 %
06.05.2019 21:00 7,6 C 6,6 C 6,3 C 87 % 1018,0 hPa 0,0 l/m 0,00 h 0,00 h 0 W/m 5,6 km/h (1 Bft) 97,36 %
06.05.2019 22:00 6,8 C 5,7 C 5,2 C 88 % 1018,1 hPa 0,0 l/m 0,00 h 0,00 h 0 W/m 3,4 km/h (1 Bft) 97,70 %
06.05.2019 23:00 6,4 C 5,6 C 5,5 C 90 % 1018,1 hPa 0,0 l/m 0,00 h 0,00 h 0 W/m 2,6 km/h (1 Bft) 98,08 %
07.05.2019 00:00 6,2 C 5,6 C 5,2 C 91 % 1017,9 hPa 0,0 l/m 0,00 h 0,00 h 0 W/m 0,0 km/h (0 Bft) 97,44 %
07.05.2019 01:00 6,1 C 5,6 C 5,0 C 91 % 1017,9 hPa 0,0 l/m 0,00 h 0,00 h 0 W/m 0,0 km/h (0 Bft) 97,12 %
07.05.2019 02:00 6,0 C 5,0 C 4,6 C 91 % 1017,6 hPa 0,0 l/m 0,00 h 0,00 h 0 W/m 0,0 km/h (0 Bft) 97,08 %
07.05.2019 03:00 5,7 C 4,6 C 4,2 C 91 % 1017,4 hPa 0,0 l/m 0,00 h 0,00 h 0 W/m 0,0 km/h (0 Bft) 98,11 %
07.05.2019 04:00 5,4 C 4,3 C 3,8 C 91 % 1017,4 hPa 0,0 l/m 0,00 h 0,00 h 0 W/m 0,0 km/h (0 Bft) 99,53 %
07.05.2019 05:00 5,0 C 3,9 C 3,3 C 91 % 1017,3 hPa 0,0 l/m 0,00 h 0,00 h 0 W/m 0,0 km/h (0 Bft) 94,55 %
07.05.2019 06:00 4,8 C 4,4 C 3,9 C 92 % 1017,2 hPa 0,0 l/m 0,00 h 0,00 h 21 W/m 0,0 km/h (0 Bft) 99,03 %
07.05.2019 07:00 5,4 C 6,4 C 5,6 C 94 % 1017,1 hPa 0,0 l/m 0,00 h 0,00 h 75 W/m 0,0 km/h (0 Bft) 98,21 %
07.05.2019 08:00 6,8 C 9,8 C 7,4 C 95 % 1017,1 hPa 0,0 l/m 0,43 h 0,00 h 188 W/m 5,4 km/h (1 Bft) 95,72 %
07.05.2019 09:00 9,1 C 12,9 C 12,6 C 84 % 1017,0 hPa 0,0 l/m 1,00 h 0,00 h 383 W/m 12,1 km/h (2 Bft) 99,37 %
07.05.2019 10:00 11,1 C 15,4 C 14,9 C 72 % 1016,8 hPa 0,0 l/m 0,93 h 0,00 h 541 W/m 12,6 km/h (3 Bft) 98,31 %
07.05.2019 11:00 11,7 C 12,5 C 12,2 C 66 % 1016,4 hPa 0,0 l/m 0,20 h 0,00 h 225 W/m 9,6 km/h (2 Bft) 97,52 %
07.05.2019 12:00 10,6 C 10,7 C 10,2 C 69 % 1016,0 hPa 0,0 l/m 0,00 h 0,00 h 176 W/m 7,9 km/h (2 Bft) 97,46 %
07.05.2019 13:00 11,2 C 13,1 C 12,0 C 67 % 1015,5 hPa 0,0 l/m 0,13 h 0,00 h 316 W/m 7,6 km/h (2 Bft) 96,72 %
07.05.2019 14:00 12,7 C 15,4 C 14,2 C 61 % 1014,9 hPa 0,0 l/m 0,70 h 0,00 h 489 W/m 11,7 km/h (2 Bft) 97,67 %
07.05.2019 15:00 13,2 C 12,7 C 12,3 C 58 % 1014,4 hPa 0,0 l/m 0,13 h 0,03 h 173 W/m 11,4 km/h (2 Bft) 98,00 %
07.05.2019 16:00 12,6 C 13,7 C 12,9 C 59 % 1013,8 hPa 0,0 l/m 0,70 h 0,00 h 364 W/m 10,8 km/h (2 Bft) 97,96 %
07.05.2019 17:00 13,5 C 13,3 C 12,6 C 54 % 1013,1 hPa 0,0 l/m 0,30 h 0,00 h 289 W/m 13,4 km/h (3 Bft) 95,48 %
07.05.2019 18:00 12,7 C 12,0 C 11,4 C 57 % 1012,6 hPa 0,0 l/m 0,10 h 0,00 h 124 W/m 11,5 km/h (2 Bft) 99,61 %
07.05.2019 19:00 12,4 C 11,9 C 11,0 C 59 % 1012,2 hPa 0,0 l/m 0,10 h 0,00 h 85 W/m 8,8 km/h (2 Bft) 97,26 %
07.05.2019 20:00 12,0 C 10,8 C 10,0 C 61 % 1011,9 hPa 0,0 l/m 0,00 h 0,00 h 32 W/m 5,2 km/h (1 Bft) 96,35 %
07.05.2019 21:00 10,5 C 7,6 C 6,7 C 70 % 1011,7 hPa 0,0 l/m 0,00 h 0,00 h 3 W/m 1,1 km/h (0 Bft) 98,03 %
07.05.2019 22:00 8,2 C 5,8 C 5,1 C 78 % 1011,4 hPa 0,0 l/m 0,00 h 0,00 h 0 W/m 0,0 km/h (0 Bft) 99,51 %
07.05.2019 23:00 6,8 C 4,9 C 4,2 C 81 % 1010,6 hPa 0,0 l/m 0,00 h 0,00 h 0 W/m 0,0 km/h (0 Bft) 97,23 %
08.05.2019 00:00 6,1 C 5,5 C 4,8 C 84 % 1009,9 hPa 0,0 l/m 0,00 h 0,00 h 0 W/m 1,1 km/h (0 Bft) 97,55 %
08.05.2019 01:00 6,7 C 7,0 C 6,1 C 87 % 1008,9 hPa 0,0 l/m 0,00 h 0,00 h 0 W/m 3,5 km/h (1 Bft) 96,58 %
08.05.2019 02:00 7,4 C 7,3 C 6,4 C 84 % 1008,1 hPa 0,0 l/m 0,00 h 0,00 h 0 W/m 4,9 km/h (1 Bft) 97,94 %
08.05.2019 03:00 8,1 C 7,7 C 7,1 C 79 % 1007,2 hPa 0,0 l/m 0,00 h 0,00 h 0 W/m 11,3 km/h (2 Bft) 97,86 %
08.05.2019 04:00 8,0 C 7,1 C 6,5 C 78 % 1006,0 hPa 0,0 l/m 0,00 h 0,00 h 0 W/m 7,8 km/h (2 Bft) 97,79 %
08.05.2019 05:00 7,7 C 7,2 C 6,3 C 80 % 1004,9 hPa 0,0 l/m 0,00 h 0,00 h 0 W/m 6,7 km/h (2 Bft) 96,93 %
08.05.2019 06:00 7,8 C 7,4 C 6,9 C 78 % 1004,1 hPa 0,0 l/m 0,00 h 0,00 h 16 W/m 9,6 km/h (2 Bft) 97,74 %
08.05.2019 07:00 8,4 C 8,5 C 7,9 C 76 % 1003,0 hPa 0,0 l/m 0,00 h 0,00 h 53 W/m 12,5 km/h (3 Bft) 98,72 %
08.05.2019 08:00 9,2 C 9,8 C 9,0 C 74 % 1002,4 hPa 0,0 l/m 0,23 h 0,10 h 142 W/m 19,0 km/h (3 Bft) 96,08 %
08.05.2019 09:00 10,1 C 10,0 C 9,5 C 73 % 1001,5 hPa 0,0 l/m 0,00 h 0,00 h 123 W/m 17,0 km/h (3 Bft) 97,29 %
08.05.2019 10:00 10,5 C 11,4 C 10,8 C 75 % 1000,5 hPa 0,0 l/m 0,00 h 0,07 h 234 W/m 18,0 km/h (3 Bft) 98,43 %
08.05.2019 11:00 11,3 C 10,9 C 10,5 C 78 % 999,9 hPa 0,0 l/m 0,00 h 0,73 h 274 W/m 25,1 km/h (4 Bft) 97,06 %
08.05.2019 12:00 10,7 C 10,2 C 10,0 C 84 % 998,8 hPa 0,0 l/m 0,07 h 0,27 h 257 W/m 25,5 km/h (4 Bft) 97,74 %
08.05.2019 13:00 11,3 C 11,7 C 11,4 C 84 % 997,4 hPa 0,0 l/m 0,00 h 0,17 h 252 W/m 27,2 km/h (4 Bft) 97,72 %
08.05.2019 14:00 11,7 C 10,7 C 10,4 C 88 % 996,8 hPa 0,2 l/m 0,00 h 0,70 h 164 W/m 23,4 km/h (4 Bft) 97,93 %
08.05.2019 15:00 11,5 C 10,0 C 9,7 C 92 % 996,0 hPa 0,6 l/m 0,00 h 1,00 h 125 W/m 23,2 km/h (4 Bft) 96,52 %
08.05.2019 16:00 11,3 C 10,3 C 9,8 C 94 % 995,0 hPa 0,4 l/m 0,00 h 0,53 h 97 W/m 20,2 km/h (4 Bft) 98,72 %
08.05.2019 17:00 11,6 C 10,6 C 10,0 C 96 % 994,1 hPa 2,0 l/m 0,00 h 0,73 h 57 W/m 22,0 km/h (4 Bft) 97,51 %
08.05.2019 18:00 11,7 C 10,9 C 10,3 C 96 % 994,0 hPa 0,8 l/m 0,00 h 0,40 h 54 W/m 15,8 km/h (3 Bft) 95,40 %
08.05.2019 19:00 11,9 C 11,2 C 10,6 C 97 % 994,0 hPa 0,0 l/m 0,00 h 0,00 h 57 W/m 7,5 km/h (2 Bft) 99,57 %
08.05.2019 20:00 11,7 C 10,7 C 10,1 C 97 % 993,9 hPa 0,0 l/m 0,00 h 0,00 h 24 W/m 9,4 km/h (2 Bft) 98,00 %
08.05.2019 21:00 10,9 C 9,6 C 9,0 C 96 % 994,4 hPa 0,0 l/m 0,00 h 0,00 h 4 W/m 8,7 km/h (2 Bft) 94,69 %
08.05.2019 22:00 9,9 C 9,0 C 8,3 C 94 % 994,9 hPa 0,0 l/m 0,00 h 0,00 h 0 W/m 9,7 km/h (2 Bft) 99,52 %
08.05.2019 23:00 9,6 C 9,0 C 7,9 C 94 % 995,0 hPa 0,0 l/m 0,00 h 0,00 h 0 W/m 10,1 km/h (2 Bft) 97,22 %
09.05.2019 00:00 9,6 C 9,4 C 7,8 C 93 % 995,1 hPa 0,0 l/m 0,00 h 0,00 h 0 W/m 13,9 km/h (3 Bft) 96,87 %
09.05.2019 01:00 9,8 C 9,2 C 7,8 C 91 % 995,1 hPa 0,0 l/m 0,00 h 0,00 h 0 W/m 13,9 km/h (3 Bft) 99,30 %
09.05.2019 02:00 9,7 C 9,0 C 7,8 C 91 % 995,1 hPa 0,0 l/m 0,00 h 0,00 h 0 W/m 11,5 km/h (2 Bft) 97,09 %
09.05.2019 03:00 9,3 C 8,6 C 8,0 C 89 % 995,1 hPa 0,0 l/m 0,00 h 0,00 h 0 W/m 12,5 km/h (3 Bft) 97,78 %
09.05.2019 04:00 8,8 C 7,7 C 7,1 C 89 % 995,0 hPa 0,0 l/m 0,00 h 0,00 h 0 W/m 8,0 km/h (2 Bft) 97,77 %
09.05.2019 05:00 7,9 C 6,7 C 6,1 C 91 % 994,6 hPa 0,0 l/m 0,00 h 0,00 h 1 W/m 8,7 km/h (2 Bft) 97,09 %
09.05.2019 06:00 7,3 C 6,9 C 6,3 C 93 % 994,5 hPa 0,0 l/m 0,00 h 0,00 h 23 W/m 10,3 km/h (2 Bft) 99,09 %
09.05.2019 07:00 8,2 C 8,6 C 8,0 C 95 % 994,7 hPa 0,0 l/m 0,00 h 0,00 h 61 W/m 12,1 km/h (2 Bft) 96,16 %
09.05.2019 08:00 9,7 C 12,3 C 9,9 C 94 % 994,9 hPa 0,0 l/m 0,37 h 0,00 h 178 W/m 18,9 km/h (3 Bft) 97,79 %
09.05.2019 09:00 12,7 C 16,6 C 16,9 C 83 % 994,9 hPa 0,0 l/m 0,90 h 0,00 h 472 W/m 22,1 km/h (4 Bft) 94,90 %
09.05.2019 10:00 13,5 C 15,1 C 14,7 C 78 % 994,8 hPa 0,0 l/m 0,33 h 0,00 h 298 W/m 21,8 km/h (4 Bft) 96,88 %
09.05.2019 11:00 14,3 C 16,4 C 15,8 C 77 % 994,8 hPa 0,0 l/m 0,73 h 0,13 h 495 W/m 20,7 km/h (4 Bft) 98,93 %
09.05.2019 12:00 15,3 C 17,9 C 18,2 C 72 % 994,9 hPa 0,0 l/m 0,70 h 0,00 h 541 W/m 22,6 km/h (4 Bft) 97,31 %
09.05.2019 13:00 14,9 C 16,2 C 16,1 C 73 % 995,2 hPa 0,0 l/m 0,77 h 0,00 h 454 W/m 23,0 km/h (4 Bft) 98,15 %
09.05.2019 14:00 15,8 C 18,1 C 17,8 C 71 % 995,5 hPa 0,0 l/m 1,00 h 0,00 h 563 W/m 17,0 km/h (3 Bft) 96,08 %
09.05.2019 15:00 16,4 C 16,8 C 16,2 C 69 % 996,0 hPa 0,0 l/m 0,30 h 0,00 h 287 W/m 13,0 km/h (3 Bft) 97,93 %
09.05.2019 16:00 16,0 C 16,8 C 16,1 C 71 % 996,5 hPa 0,0 l/m 0,50 h 0,00 h 374 W/m 11,4 km/h (2 Bft) 97,87 %
09.05.2019 17:00 17,6 C 17,6 C 17,0 C 66 % 996,7 hPa 0,0 l/m 0,67 h 0,00 h 479 W/m 12,6 km/h (3 Bft) 97,23 %
09.05.2019 18:00 17,6 C 16,6 C 16,0 C 65 % 997,1 hPa 0,0 l/m 0,10 h 0,00 h 112 W/m 9,4 km/h (2 Bft) 97,24 %
09.05.2019 19:00 16,3 C 15,4 C 14,8 C 71 % 997,5 hPa 0,0 l/m 0,10 h 0,00 h 63 W/m 6,3 km/h (2 Bft) 97,89 %
09.05.2019 20:00 14,1 C 11,7 C 11,6 C 78 % 998,7 hPa 3,0 l/m 0,00 h 0,50 h 7 W/m 14,8 km/h (3 Bft) 98,02 %
09.05.2019 21:00 11,1 C 9,4 C 9,2 C 91 % 999,7 hPa 1,8 l/m 0,00 h 0,77 h 0 W/m 9,3 km/h (2 Bft) 97,65 %
09.05.2019 22:00 10,9 C 9,7 C 9,4 C 95 % 1000,5 hPa 0,0 l/m 0,00 h 0,03 h 0 W/m 9,1 km/h (2 Bft) 96,08 %
09.05.2019 23:00 10,7 C 9,5 C 9,3 C 95 % 1001,2 hPa 0,0 l/m 0,00 h 0,00 h 0 W/m 7,6 km/h (2 Bft) 97,57 %
10.05.2019 00:00 10,3 C 9,4 C 8,9 C 96 % 1001,7 hPa 0,0 l/m 0,00 h 0,00 h 0 W/m 8,2 km/h (2 Bft) 94,91 %
10.05.2019 01:00 9,8 C 9,2 C 8,3 C 95 % 1001,9 hPa 0,0 l/m 0,00 h 0,00 h 0 W/m 13,5 km/h (3 Bft) 95,95 %
10.05.2019 02:00 9,8 C 9,4 C 8,2 C 93 % 1002,0 hPa 0,0 l/m 0,00 h 0,00 h 0 W/m 16,0 km/h (3 Bft) 97,79 %
10.05.2019 03:00 9,9 C 9,4 C 8,1 C 91 % 1002,2 hPa 0,0 l/m 0,00 h 0,00 h 0 W/m 17,3 km/h (3 Bft) 98,22 %
10.05.2019 04:00 9,9 C 9,4 C 8,6 C 91 % 1002,5 hPa 0,0 l/m 0,00 h 0,07 h 0 W/m 17,4 km/h (3 Bft) 97,58 %
10.05.2019 05:00 9,7 C 8,2 C 8,0 C 92 % 1003,0 hPa 0,6 l/m 0,00 h 0,60 h 0 W/m 15,5 km/h (3 Bft) 96,90 %
10.05.2019 06:00 9,3 C 8,3 C 7,8 C 95 % 1003,8 hPa 0,0 l/m 0,00 h 0,07 h 8 W/m 11,5 km/h (2 Bft) 98,00 %
10.05.2019 07:00 9,3 C 8,3 C 8,0 C 96 % 1004,6 hPa 0,2 l/m 0,00 h 0,37 h 19 W/m 6,4 km/h (2 Bft) 98,83 %
10.05.2019 08:00 9,6 C 8,9 C 8,3 C 96 % 1005,3 hPa 0,0 l/m 0,00 h 0,37 h 42 W/m 3,6 km/h (1 Bft) 94,85 %
10.05.2019 09:00 10,1 C 9,9 C 9,5 C 97 % 1006,2 hPa 0,0 l/m 0,07 h 0,07 h 150 W/m 4,5 km/h (1 Bft) 99,08 %
10.05.2019 10:00 11,1 C 12,5 C 11,3 C 94 % 1006,8 hPa 0,0 l/m 0,30 h 0,00 h 280 W/m 7,7 km/h (2 Bft) 98,78 %
10.05.2019 11:00 12,1 C 12,9 C 11,2 C 85 % 1007,6 hPa 0,0 l/m 0,07 h 0,00 h 208 W/m 8,4 km/h (2 Bft) 95,23 %
10.05.2019 12:00 11,9 C 11,0 C 10,3 C 85 % 1008,1 hPa 0,4 l/m 0,00 h 0,27 h 187 W/m 10,0 km/h (2 Bft) 98,41 %
10.05.2019 13:00 11,7 C 11,0 C 10,5 C 87 % 1008,3 hPa 0,0 l/m 0,07 h 0,10 h 208 W/m 11,4 km/h (2 Bft) 97,89 %
10.05.2019 14:00 13,4 C 17,3 C 16,3 C 81 % 1008,4 hPa 0,0 l/m 0,90 h 0,00 h 707 W/m 9,8 km/h (2 Bft) 97,79 %
10.05.2019 15:00 15,1 C 16,1 C 14,4 C 73 % 1008,5 hPa 0,0 l/m 0,33 h 0,13 h 391 W/m 12,3 km/h (3 Bft) 96,87 %
10.05.2019 16:00 14,8 C 16,4 C 14,8 C 74 % 1008,6 hPa 0,0 l/m 0,80 h 0,00 h 556 W/m 10,9 km/h (2 Bft) 96,51 %
10.05.2019 17:00 15,8 C 14,8 C 14,1 C 67 % 1008,8 hPa 1,6 l/m 0,30 h 0,13 h 217 W/m 12,7 km/h (3 Bft) 98,57 %
10.05.2019 18:00 12,1 C 10,1 C 9,6 C 87 % 1009,1 hPa 1,2 l/m 0,17 h 0,20 h 129 W/m 6,5 km/h (2 Bft) 98,82 %
10.05.2019 19:00 11,2 C 9,7 C 9,0 C 91 % 1008,8 hPa 0,0 l/m 0,20 h 0,00 h 89 W/m 6,2 km/h (2 Bft) 96,34 %
10.05.2019 20:00 10,3 C 8,4 C 7,9 C 90 % 1009,1 hPa 0,0 l/m 0,00 h 0,00 h 18 W/m 0,1 km/h (0 Bft) 97,26 %
10.05.2019 21:00 9,7 C 8,0 C 7,6 C 92 % 1009,3 hPa 0,0 l/m 0,00 h 0,00 h 2 W/m 0,0 km/h (0 Bft) 97,65 %
10.05.2019 22:00 9,1 C 7,8 C 7,2 C 93 % 1009,5 hPa 0,0 l/m 0,00 h 0,00 h 0 W/m 0,0 km/h (0 Bft) 99,57 %
10.05.2019 23:00 8,8 C 7,5 C 7,3 C 94 % 1009,2 hPa 0,0 l/m 0,00 h 0,00 h 0 W/m 0,0 km/h (0 Bft) 94,09 %
11.05.2019 00:00 8,6 C 7,6 C 7,2 C 95 % 1008,8 hPa 0,0 l/m 0,00 h 0,00 h 0 W/m 0,0 km/h (0 Bft) 99,01 %
11.05.2019 01:00 8,6 C 7,8 C 7,2 C 95 % 1008,4 hPa 0,0 l/m 0,00 h 0,13 h 0 W/m 0,0 km/h (0 Bft) 98,22 %
11.05.2019 02:00 8,7 C 7,8 C 7,6 C 96 % 1008,1 hPa 0,0 l/m 0,00 h 0,40 h 0 W/m 0,2 km/h (0 Bft) 96,94 %
11.05.2019 03:00 8,7 C 7,8 C 7,7 C 96 % 1007,7 hPa 0,2 l/m 0,00 h 0,97 h 0 W/m 0,6 km/h (0 Bft) 97,93 %
11.05.2019 04:00 8,7 C 7,8 C 7,4 C 97 % 1007,6 hPa 0,2 l/m 0,00 h 0,60 h 0 W/m 0,4 km/h (0 Bft) 97,51 %
11.05.2019 05:00 8,5 C 7,7 C 7,2 C 97 % 1007,7 hPa 0,0 l/m 0,00 h 0,58 h 0 W/m 0,1 km/h (0 Bft) 99,00 %
11.05.2019 06:00 8,5 C 7,8 C 7,5 C 97 % 1007,6 hPa 0,2 l/m 0,00 h 0,73 h 10 W/m 0,6 km/h (0 Bft) 96,32 %
11.05.2019 07:00 8,7 C 8,1 C 7,9 C 97 % 1007,8 hPa 0,2 l/m 0,00 h 0,60 h 41 W/m 2,1 km/h (1 Bft) 96,80 %
11.05.2019 08:00 9,4 C 9,4 C 8,9 C 98 % 1008,2 hPa 0,0 l/m 0,00 h 0,00 h 108 W/m 4,2 km/h (1 Bft) 99,57 %
11.05.2019 09:00 10,0 C 10,4 C 9,8 C 98 % 1008,5 hPa 0,0 l/m 0,00 h 0,00 h 163 W/m 4,1 km/h (1 Bft) 95,94 %
11.05.2019 10:00 11,1 C 13,3 C 11,5 C 98 % 1009,1 hPa 0,0 l/m 0,17 h 0,00 h 291 W/m 11,2 km/h (2 Bft) 96,80 %
11.05.2019 11:00 12,7 C 17,5 C 14,2 C 94 % 1009,9 hPa 0,0 l/m 0,90 h 0,00 h 516 W/m 12,1 km/h (2 Bft) 99,43 %
11.05.2019 12:00 14,9 C 19,9 C 18,3 C 82 % 1010,6 hPa 0,0 l/m 0,63 h 0,00 h 615 W/m 15,7 km/h (3 Bft) 96,99 %
11.05.2019 13:00 16,1 C 19,7 C 20,1 C 73 % 1011,2 hPa 0,0 l/m 0,60 h 0,00 h 626 W/m 15,5 km/h (3 Bft) 99,93 %
11.05.2019 14:00 15,7 C 16,8 C 16,5 C 70 % 1012,0 hPa 0,0 l/m 0,10 h 0,00 h 291 W/m 13,1 km/h (3 Bft) 95,51 %
11.05.2019 15:00 15,1 C 14,2 C 12,9 C 75 % 1013,1 hPa 0,2 l/m 0,23 h 0,20 h 249 W/m 10,2 km/h (2 Bft) 97,43 %
11.05.2019 16:00 15,5 C 16,6 C 14,2 C 72 % 1014,1 hPa 0,0 l/m 0,60 h 0,00 h 531 W/m 13,8 km/h (3 Bft) 99,14 %
11.05.2019 17:00 16,9 C 16,8 C 16,0 C 62 % 1015,2 hPa 0,0 l/m 0,63 h 0,00 h 394 W/m 16,2 km/h (3 Bft) 97,38 %
11.05.2019 18:00 16,9 C 16,5 C 15,5 C 57 % 1016,2 hPa 0,2 l/m 1,00 h 0,00 h 399 W/m 23,7 km/h (4 Bft) 97,71 %
11.05.2019 19:00 14,9 C 13,9 C 12,6 C 59 % 1017,2 hPa 0,0 l/m 0,23 h 0,00 h 94 W/m 20,7 km/h (4 Bft) 96,92 %
11.05.2019 20:00 13,3 C 12,1 C 11,2 C 62 % 1018,4 hPa 0,0 l/m 0,00 h 0,00 h 23 W/m 14,3 km/h (3 Bft) 97,12 %
11.05.2019 21:00 11,7 C 10,2 C 9,4 C 66 % 1019,8 hPa 0,0 l/m 0,00 h 0,00 h 5 W/m 12,4 km/h (3 Bft) 98,33 %
11.05.2019 22:00 10,2 C 8,7 C 8,2 C 69 % 1021,3 hPa 0,0 l/m 0,00 h 0,00 h 0 W/m 11,5 km/h (2 Bft) 97,22 %
11.05.2019 23:00 8,9 C 7,4 C 6,9 C 72 % 1022,4 hPa 0,0 l/m 0,00 h 0,00 h 0 W/m 8,7 km/h (2 Bft) 97,36 %
12.05.2019 00:00 7,8 C 6,2 C 5,8 C 76 % 1023,4 hPa 0,0 l/m 0,00 h 0,00 h 0 W/m 7,1 km/h (2 Bft) 97,14 %
12.05.2019 01:00 6,6 C 5,0 C 4,6 C 80 % 1024,4 hPa 0,0 l/m 0,00 h 0,00 h 0 W/m 7,3 km/h (2 Bft) 95,58 %
12.05.2019 02:00 5,6 C 4,1 C 3,8 C 83 % 1025,0 hPa 0,0 l/m 0,00 h 0,00 h 0 W/m 5,5 km/h (1 Bft) 99,01 %
12.05.2019 03:00 4,8 C 3,7 C 3,3 C 86 % 1025,8 hPa 0,0 l/m 0,00 h 0,00 h 0 W/m 4,6 km/h (1 Bft) 98,15 %
12.05.2019 04:00 4,6 C 3,9 C 3,8 C 88 % 1026,6 hPa 0,0 l/m 0,00 h 0,00 h 0 W/m 4,6 km/h (1 Bft) 97,44 %
12.05.2019 05:00 4,7 C 4,4 C 4,1 C 89 % 1027,5 hPa 0,0 l/m 0,00 h 0,00 h 4 W/m 5,8 km/h (1 Bft) 96,82 %
12.05.2019 06:00 5,1 C 4,8 C 4,5 C 90 % 1028,3 hPa 0,0 l/m 0,00 h 0,00 h 21 W/m 3,4 km/h (1 Bft) 99,52 %
12.05.2019 07:00 5,6 C 6,4 C 5,6 C 90 % 1029,2 hPa 0,0 l/m 0,03 h 0,00 h 70 W/m 6,9 km/h (2 Bft) 96,23 %
12.05.2019 08:00 7,9 C 13,4 C 10,2 C 86 % 1029,9 hPa 0,0 l/m 0,43 h 0,00 h 252 W/m 9,2 km/h (2 Bft) 98,21 %
12.05.2019 09:00 11,0 C 14,5 C 13,8 C 74 % 1030,4 hPa 0,0 l/m 0,50 h 0,00 h 279 W/m 11,4 km/h (2 Bft) 98,50 %
12.05.2019 10:00 12,6 C 17,5 C 17,5 C 65 % 1030,7 hPa 0,0 l/m 0,57 h 0,00 h 489 W/m 12,6 km/h (3 Bft) 98,56 %
12.05.2019 11:00 13,3 C 19,7 C 20,1 C 62 % 1031,0 hPa 0,0 l/m 1,02 h 0,00 h 660 W/m 16,6 km/h (3 Bft) 98,25 %
12.05.2019 12:00 15,2 C 20,6 C 21,2 C 55 % 1031,3 hPa 0,0 l/m 0,50 h 0,00 h 671 W/m 15,7 km/h (3 Bft) 98,06 %
12.05.2019 13:00 15,6 C 19,5 C 20,3 C 53 % 1031,4 hPa 0,0 l/m 0,42 h 0,00 h 666 W/m 16,1 km/h (3 Bft) 99,41 %
12.05.2019 14:00 16,1 C 20,0 C 20,4 C 53 % 1031,5 hPa 0,0 l/m 0,92 h 0,00 h 710 W/m 17,4 km/h (3 Bft) 97,59 %
12.05.2019 15:00 16,9 C 17,5 C 15,9 C 52 % 1031,8 hPa 0,0 l/m 0,33 h 0,00 h 407 W/m 14,7 km/h (3 Bft) 99,04 %
12.05.2019 16:00 15,1 C 15,4 C 14,5 C 57 % 1032,1 hPa 0,0 l/m 0,47 h 0,00 h 344 W/m 12,1 km/h (2 Bft) 98,57 %
12.05.2019 17:00 16,9 C 16,5 C 15,5 C 52 % 1032,1 hPa 0,0 l/m 0,57 h 0,00 h 448 W/m 13,4 km/h (3 Bft) 97,67 %
12.05.2019 18:00 14,7 C 14,4 C 13,7 C 56 % 1032,4 hPa 0,0 l/m 0,23 h 0,00 h 183 W/m 12,1 km/h (2 Bft) 97,89 %
12.05.2019 19:00 14,0 C 12,6 C 12,0 C 58 % 1032,7 hPa 0,0 l/m 0,00 h 0,00 h 59 W/m 8,8 km/h (2 Bft) 96,80 %
12.05.2019 20:00 12,3 C 10,8 C 10,1 C 64 % 1033,2 hPa 0,0 l/m 0,00 h 0,00 h 23 W/m 6,3 km/h (2 Bft) 97,08 %
12.05.2019 21:00 11,0 C 9,7 C 9,1 C 67 % 1033,6 hPa 0,0 l/m 0,00 h 0,00 h 9 W/m 7,8 km/h (2 Bft) 97,65 %
12.05.2019 22:00 10,0 C 8,5 C 8,0 C 70 % 1034,3 hPa 0,0 l/m 0,00 h 0,00 h 0 W/m 7,1 km/h (2 Bft) 98,79 %
12.05.2019 23:00 9,3 C 8,1 C 7,6 C 71 % 1034,8 hPa 0,0 l/m 0,00 h 0,00 h 0 W/m 7,0 km/h (2 Bft) 96,65 %
Min-Datum _ 06.05.19 06.05.19 06.05.19 12.05.19 08.05.19 - - - - 06.05.19 10.05.19
_ Min-Zeit 05:16 05:10 04:32 14:30 18:58 - - - - 00:00 00:02
Minimum _ 1,9 C 0,6 C 0,6 C 50 % 993,6 hPa - - - - 0,0 km/h (0 Bft) 11,76 %
Max-Datum _ 09.05.19 12.05.19 12.05.19 11.05.19 12.05.19 09.05.19 12.05.19 11.05.19 12.05.19 08.05.19 06.05.19
_ Max-Zeit 18:04 12:28 12:40 07:38 23:46 20:38 11:15 05:10 13:08 13:54 00:00
Maximum _ 18,3 C 25,6 C 27,2 C 98 % 1035,1 hPa 3,0 l/m 0,08 h 0,08 h 1149 W/m 45,1 km/h
O-SO (6 Bft)
100,00 %
Durchschnitt _ 10,2 C 10,2 C 9,6 C 81 % 1011,3 hPa #14,4 l/m #27:15 h #14:01 h 226 W/m 9,6 km/h (2 Bft) 97,59 %
© 2019 W. Hausmann